createdAt,value
2023-02-09T04:42:57.077Z,100.00
2023-02-09T04:46:00.755Z,100.00
2023-02-09T04:49:03.446Z,100.00
2023-02-09T04:52:06.124Z,100.00
2023-02-09T04:55:08.851Z,100.00
2023-02-09T04:58:32.133Z,100.00
2023-02-09T05:01:35.424Z,100.00
2023-02-09T05:04:38.186Z,100.00
2023-02-09T05:07:40.818Z,100.00
2023-02-09T05:10:44.883Z,100.00
2023-02-09T05:13:47.887Z,100.00
2023-02-09T05:16:50.786Z,100.00
2023-02-09T05:19:53.524Z,100.00
2023-02-09T05:22:56.529Z,100.00
2023-02-09T05:25:59.084Z,100.00
2023-02-09T05:29:02.128Z,100.00
2023-02-09T05:32:05.080Z,100.00
2023-02-09T05:35:08.581Z,100.00
2023-02-09T05:38:11.292Z,100.00
2023-02-09T05:41:32.965Z,100.00
2023-02-09T05:44:35.764Z,100.00
2023-02-09T05:47:38.452Z,100.00
2023-02-09T05:50:40.978Z,100.00
2023-02-09T05:53:43.879Z,100.00
2023-02-09T05:56:46.726Z,100.00
2023-02-09T05:59:49.474Z,100.00
2023-02-09T06:02:52.142Z,100.00
2023-02-09T06:05:55.111Z,100.00
2023-02-09T06:08:58.995Z,100.00
2023-02-09T06:12:02.214Z,100.00
2023-02-09T06:15:05.934Z,100.00
2023-02-09T06:18:10.100Z,100.00
2023-02-09T06:21:13.061Z,100.00
2023-02-09T06:24:17.138Z,100.00
2023-02-09T06:27:19.685Z,100.00
2023-02-09T06:30:22.541Z,100.00
2023-02-09T06:33:25.647Z,100.00
2023-02-09T06:36:28.587Z,100.00
2023-02-09T06:39:31.437Z,100.00
2023-02-09T06:42:46.618Z,100.00
2023-02-09T06:45:49.126Z,100.00
2023-02-09T06:48:51.895Z,100.00
2023-02-09T06:51:54.545Z,100.00
2023-02-09T06:54:57.425Z,100.00
2023-02-09T06:58:00.422Z,100.00
2023-02-09T07:01:12.575Z,100.00
2023-02-09T07:04:15.450Z,100.00
2023-02-09T07:07:18.552Z,100.00
2023-02-09T07:10:21.691Z,98.95
2023-02-09T07:13:25.713Z,98.60
2023-02-09T07:16:28.216Z,97.59
2023-02-09T07:19:31.100Z,95.53
2023-02-09T07:22:34.103Z,93.89
2023-02-09T07:25:36.900Z,93.00
2023-02-09T07:28:39.333Z,88.82
2023-02-09T07:31:42.333Z,91.71
2023-02-09T07:34:44.815Z,89.02
2023-02-09T07:37:47.547Z,86.67
2023-02-09T07:40:51.287Z,88.33
2023-02-09T07:43:55.256Z,84.68
2023-02-09T07:46:57.529Z,85.75
2023-02-09T07:50:00.641Z,85.40
2023-02-09T07:53:03.266Z,83.23
2023-02-09T07:56:06.358Z,81.82
2023-02-09T07:59:10.464Z,79.87
2023-02-09T08:02:31.273Z,79.68
2023-02-09T08:05:41.825Z,78.62
2023-02-09T08:08:51.800Z,75.20
2023-02-09T08:11:59.004Z,74.74
2023-02-09T08:15:02.087Z,74.27
2023-02-09T08:18:13.110Z,74.76
2023-02-09T08:21:19.026Z,72.44
2023-02-09T08:24:21.848Z,71.47
2023-02-09T08:27:24.268Z,72.11
2023-02-09T08:30:48.480Z,70.44
2023-02-09T08:33:51.538Z,69.07
2023-02-09T08:36:54.227Z,64.74
2023-02-09T08:39:56.637Z,52.33
2023-02-09T08:42:59.317Z,43.74
2023-02-09T08:46:10.053Z,36.21
2023-02-09T08:49:13.319Z,34.67
2023-02-09T08:52:15.789Z,35.02
2023-02-09T08:55:18.613Z,37.11
2023-02-09T08:58:21.415Z,38.38
2023-02-09T09:01:24.449Z,39.68
2023-02-09T09:04:26.979Z,40.73
2023-02-09T09:07:29.673Z,39.60
2023-02-09T09:10:32.218Z,35.87
2023-02-09T09:13:35.052Z,37.90
2023-02-09T09:16:37.920Z,37.12
2023-02-09T09:19:40.889Z,38.42
2023-02-09T09:22:43.404Z,38.74
2023-02-09T09:25:46.351Z,39.48
2023-02-09T09:28:52.470Z,44.60
2023-02-09T09:31:55.668Z,47.31
2023-02-09T09:34:59.529Z,49.33
2023-02-09T09:38:02.542Z,50.89
2023-02-09T09:41:16.753Z,52.54
2023-02-09T09:44:46.211Z,54.61
2023-02-09T09:47:50.220Z,55.22
2023-02-09T09:50:58.054Z,55.72
2023-02-09T09:54:03.752Z,54.60
2023-02-09T09:57:19.538Z,54.75
2023-02-09T10:00:38.609Z,55.20
2023-02-09T10:03:42.913Z,55.54
2023-02-09T10:06:47.101Z,56.00
2023-02-09T10:09:56.391Z,55.35
2023-02-09T10:13:03.372Z,55.26
2023-02-09T10:16:17.310Z,55.81
2023-02-09T10:19:26.617Z,55.81
2023-02-09T10:22:29.457Z,53.91
2023-02-09T10:25:52.291Z,52.73
2023-02-09T10:29:00.312Z,52.33
2023-02-09T10:32:16.760Z,52.53
2023-02-09T10:35:26.413Z,52.72
2023-02-09T10:38:33.485Z,52.11
2023-02-09T10:41:38.859Z,52.19
2023-02-09T10:44:50.418Z,51.42
2023-02-09T10:48:16.708Z,51.62
2023-02-09T10:51:33.533Z,52.21
2023-02-09T10:54:41.675Z,50.48
2023-02-09T10:57:44.069Z,50.69
2023-02-09T11:01:00.711Z,50.40
2023-02-09T11:04:19.819Z,50.47
2023-02-09T11:07:31.723Z,49.82
2023-02-09T11:10:40.362Z,48.45
2023-02-09T11:13:43.051Z,49.73
2023-02-09T11:17:06.826Z,49.77
2023-02-09T11:20:09.461Z,49.19
2023-02-09T11:23:55.729Z,47.82
2023-02-09T11:27:13.251Z,47.24
2023-02-09T11:30:25.931Z,47.83
2023-02-09T11:34:06.442Z,46.74
2023-02-09T11:37:21.108Z,47.88
2023-02-09T11:40:29.980Z,47.47
2023-02-09T11:43:37.812Z,47.14
2023-02-09T11:46:41.798Z,46.68
2023-02-09T11:49:48.616Z,47.39
2023-02-09T11:52:57.133Z,48.10
2023-02-09T11:56:04.758Z,48.31
2023-02-09T11:59:26.422Z,48.86
2023-02-09T12:02:53.500Z,48.16
2023-02-09T12:05:57.320Z,47.75
2023-02-09T12:09:12.499Z,47.43
2023-02-09T12:12:30.559Z,47.80
2023-02-09T12:15:35.882Z,48.83
2023-02-09T12:18:41.355Z,47.57
2023-02-09T12:21:43.854Z,47.88
2023-02-09T12:25:11.845Z,48.67
2023-02-09T12:28:36.690Z,49.80
2023-02-09T12:32:04.525Z,49.62
2023-02-09T12:35:38.990Z,49.61
2023-02-09T12:38:55.484Z,49.56
2023-02-09T12:42:01.923Z,49.18
2023-02-09T12:45:37.829Z,48.90
2023-02-09T12:49:13.608Z,49.53
2023-02-09T12:52:17.312Z,48.44
2023-02-09T12:55:23.200Z,47.39
2023-02-09T12:58:44.244Z,46.98
2023-02-09T13:02:07.152Z,47.44
2023-02-09T13:05:16.971Z,47.81
2023-02-09T13:08:33.844Z,47.51
2023-02-09T13:11:57.652Z,47.67
2023-02-09T13:15:11.611Z,46.17
2023-02-09T13:18:33.884Z,45.70
2023-02-09T13:21:47.663Z,46.84
2023-02-09T13:25:08.869Z,46.57
2023-02-09T13:28:26.422Z,46.20
2023-02-09T13:31:33.507Z,45.93
2023-02-09T13:34:52.961Z,45.90
2023-02-09T13:38:03.259Z,46.05
2023-02-09T13:41:08.737Z,45.04
2023-02-09T13:44:26.697Z,44.56
2023-02-09T13:47:29.491Z,44.79
2023-02-09T13:50:33.433Z,44.60
2023-02-09T13:53:35.901Z,43.50
2023-02-09T13:56:39.775Z,44.26
2023-02-09T13:59:43.472Z,44.62
2023-02-09T14:02:51.536Z,44.73
2023-02-09T14:06:02.942Z,44.57
2023-02-09T14:09:15.831Z,45.45
2023-02-09T14:12:55.507Z,43.94
2023-02-09T14:16:07.678Z,44.23
2023-02-09T14:19:28.186Z,44.79
2023-02-09T14:22:37.816Z,45.43
2023-02-09T14:25:42.116Z,45.84
2023-02-09T14:28:52.025Z,45.70
2023-02-09T14:32:31.954Z,45.89
2023-02-09T14:35:40.985Z,46.23
2023-02-09T14:38:43.837Z,45.87
2023-02-09T14:42:00.794Z,46.66
2023-02-09T14:45:16.006Z,46.97
2023-02-09T14:48:24.168Z,46.38
2023-02-09T14:51:27.699Z,47.24
2023-02-09T14:54:34.494Z,47.27
2023-02-09T14:57:43.189Z,46.82
2023-02-09T15:00:45.582Z,47.69
2023-02-09T15:03:48.409Z,48.41
2023-02-09T15:06:59.987Z,49.15
2023-02-09T15:10:05.986Z,48.56
2023-02-09T15:13:12.195Z,48.66
2023-02-09T15:16:16.803Z,49.29
2023-02-09T15:19:21.587Z,48.52
2023-02-09T15:22:24.937Z,48.69
2023-02-09T15:25:28.032Z,48.52
2023-02-09T15:28:32.462Z,48.60
2023-02-09T15:31:34.830Z,50.02
2023-02-09T15:34:37.646Z,50.28
2023-02-09T15:37:41.389Z,49.89
2023-02-09T15:41:05.459Z,50.43
2023-02-09T15:44:37.520Z,49.48
2023-02-09T15:47:50.143Z,49.53
2023-02-09T15:50:53.077Z,50.26
2023-02-09T15:53:59.392Z,50.87
2023-02-09T15:57:02.160Z,51.69
2023-02-09T16:00:15.154Z,54.38
2023-02-09T16:03:20.225Z,56.28
2023-02-09T16:06:27.432Z,55.26
2023-02-09T16:09:30.917Z,56.27
2023-02-09T16:12:33.663Z,58.16
2023-02-09T16:15:36.457Z,61.21
2023-02-09T16:18:39.620Z,62.21
2023-02-09T16:21:44.821Z,65.49
2023-02-09T16:24:47.379Z,66.10
2023-02-09T16:27:52.015Z,67.01
2023-02-09T16:30:56.852Z,69.64
2023-02-09T16:33:59.592Z,69.52
2023-02-09T16:37:02.052Z,71.96
2023-02-09T16:40:17.083Z,73.87
2023-02-09T16:43:20.463Z,76.71
2023-02-09T16:46:23.354Z,76.62
2023-02-09T16:49:31.578Z,81.42
2023-02-09T16:52:34.454Z,81.31
2023-02-09T16:55:37.126Z,83.91
2023-02-09T16:58:39.884Z,81.57
